sensor_id;sensor_type;location;lat;lon;timestamp;P1;durP1;ratioP1;P2;durP2;ratioP2
29402;SDS011;16382;59.942;30.472;2022-12-07T00:00:55;14.35;;;8.23;;
29402;SDS011;16382;59.942;30.472;2022-12-07T00:03:30;17.88;;;9.85;;
29402;SDS011;16382;59.942;30.472;2022-12-07T00:05:58;20.05;;;10.13;;
29402;SDS011;16382;59.942;30.472;2022-12-07T00:08:26;16.67;;;9.15;;
29402;SDS011;16382;59.942;30.472;2022-12-07T00:10:53;18.15;;;8.82;;
29402;SDS011;16382;59.942;30.472;2022-12-07T00:13:21;15.73;;;8.65;;
29402;SDS011;16382;59.942;30.472;2022-12-07T00:15:50;18.65;;;9.10;;
29402;SDS011;16382;59.942;30.472;2022-12-07T00:18:17;16.92;;;9.25;;
29402;SDS011;16382;59.942;30.472;2022-12-07T00:20:45;16.80;;;9.18;;
29402;SDS011;16382;59.942;30.472;2022-12-07T00:23:15;16.67;;;8.55;;
29402;SDS011;16382;59.942;30.472;2022-12-07T00:25:42;17.30;;;9.25;;
29402;SDS011;16382;59.942;30.472;2022-12-07T00:28:10;16.80;;;9.55;;
29402;SDS011;16382;59.942;30.472;2022-12-07T00:30:37;14.98;;;8.77;;
29402;SDS011;16382;59.942;30.472;2022-12-07T00:33:06;15.00;;;9.48;;
29402;SDS011;16382;59.942;30.472;2022-12-07T00:35:34;12.55;;;7.78;;
29402;SDS011;16382;59.942;30.472;2022-12-07T00:38:01;23.75;;;10.50;;
29402;SDS011;16382;59.942;30.472;2022-12-07T00:40:28;15.32;;;8.73;;
29402;SDS011;16382;59.942;30.472;2022-12-07T00:42:56;14.27;;;8.80;;
29402;SDS011;16382;59.942;30.472;2022-12-07T00:45:23;17.25;;;8.80;;
29402;SDS011;16382;59.942;30.472;2022-12-07T00:47:51;13.10;;;7.68;;
29402;SDS011;16382;59.942;30.472;2022-12-07T00:50:19;18.88;;;9.43;;
29402;SDS011;16382;59.942;30.472;2022-12-07T00:52:47;16.30;;;8.38;;
29402;SDS011;16382;59.942;30.472;2022-12-07T00:55:14;14.85;;;8.38;;
29402;SDS011;16382;59.942;30.472;2022-12-07T00:57:42;18.55;;;9.30;;
29402;SDS011;16382;59.942;30.472;2022-12-07T01:00:09;14.95;;;9.13;;
29402;SDS011;16382;59.942;30.472;2022-12-07T01:02:37;16.23;;;9.52;;
29402;SDS011;16382;59.942;30.472;2022-12-07T01:05:06;17.88;;;8.50;;
29402;SDS011;16382;59.942;30.472;2022-12-07T01:07:35;14.10;;;8.30;;
29402;SDS011;16382;59.942;30.472;2022-12-07T01:10:03;17.33;;;8.88;;
29402;SDS011;16382;59.942;30.472;2022-12-07T01:12:32;16.45;;;9.98;;
29402;SDS011;16382;59.942;30.472;2022-12-07T01:14:59;17.27;;;9.05;;
29402;SDS011;16382;59.942;30.472;2022-12-07T01:17:29;16.15;;;9.68;;
29402;SDS011;16382;59.942;30.472;2022-12-07T01:19:56;16.02;;;8.10;;
29402;SDS011;16382;59.942;30.472;2022-12-07T01:22:24;14.23;;;8.27;;
29402;SDS011;16382;59.942;30.472;2022-12-07T01:24:53;13.85;;;8.32;;
29402;SDS011;16382;59.942;30.472;2022-12-07T01:27:21;17.13;;;9.18;;
29402;SDS011;16382;59.942;30.472;2022-12-07T01:29:48;14.02;;;7.90;;
29402;SDS011;16382;59.942;30.472;2022-12-07T01:32:17;14.77;;;7.78;;
29402;SDS011;16382;59.942;30.472;2022-12-07T01:34:44;12.18;;;7.70;;
29402;SDS011;16382;59.942;30.472;2022-12-07T01:37:14;19.08;;;8.80;;
29402;SDS011;16382;59.942;30.472;2022-12-07T01:39:42;14.50;;;8.55;;
29402;SDS011;16382;59.942;30.472;2022-12-07T01:42:11;18.20;;;7.85;;
29402;SDS011;16382;59.942;30.472;2022-12-07T01:48:03;12.15;;;7.47;;
29402;SDS011;16382;59.942;30.472;2022-12-07T01:50:32;14.57;;;8.60;;
29402;SDS011;16382;59.942;30.472;2022-12-07T01:53:01;14.85;;;7.88;;
29402;SDS011;16382;59.942;30.472;2022-12-07T01:55:32;14.70;;;8.50;;
29402;SDS011;16382;59.942;30.472;2022-12-07T01:58:06;14.65;;;8.00;;
29402;SDS011;16382;59.942;30.472;2022-12-07T02:00:34;10.93;;;7.07;;
29402;SDS011;16382;59.942;30.472;2022-12-07T02:03:03;11.70;;;7.15;;
29402;SDS011;16382;59.942;30.472;2022-12-07T02:05:35;11.75;;;7.18;;
29402;SDS011;16382;59.942;30.472;2022-12-07T02:08:05;13.98;;;7.97;;
29402;SDS011;16382;59.942;30.472;2022-12-07T02:10:33;14.15;;;8.73;;
29402;SDS011;16382;59.942;30.472;2022-12-07T02:13:02;13.25;;;7.65;;
29402;SDS011;16382;59.942;30.472;2022-12-07T02:15:38;14.75;;;8.50;;
29402;SDS011;16382;59.942;30.472;2022-12-07T02:18:23;12.15;;;7.45;;
29402;SDS011;16382;59.942;30.472;2022-12-07T02:21:03;12.13;;;8.00;;
29402;SDS011;16382;59.942;30.472;2022-12-07T02:23:45;12.07;;;6.72;;
29402;SDS011;16382;59.942;30.472;2022-12-07T02:29:40;13.82;;;7.63;;
29402;SDS011;16382;59.942;30.472;2022-12-07T02:32:13;12.88;;;7.25;;
29402;SDS011;16382;59.942;30.472;2022-12-07T02:34:48;14.27;;;7.88;;
29402;SDS011;16382;59.942;30.472;2022-12-07T02:37:21;17.13;;;8.83;;
29402;SDS011;16382;59.942;30.472;2022-12-07T02:40:02;12.95;;;7.80;;
29402;SDS011;16382;59.942;30.472;2022-12-07T02:42:36;13.65;;;7.43;;
29402;SDS011;16382;59.942;30.472;2022-12-07T02:45:12;10.75;;;7.30;;
29402;SDS011;16382;59.942;30.472;2022-12-07T02:47:42;13.25;;;6.80;;
29402;SDS011;16382;59.942;30.472;2022-12-07T02:50:11;10.00;;;6.95;;
29402;SDS011;16382;59.942;30.472;2022-12-07T02:52:38;13.07;;;8.45;;
29402;SDS011;16382;59.942;30.472;2022-12-07T02:55:06;11.65;;;7.18;;
29402;SDS011;16382;59.942;30.472;2022-12-07T02:57:39;14.00;;;7.28;;
29402;SDS011;16382;59.942;30.472;2022-12-07T03:00:30;10.32;;;7.00;;
29402;SDS011;16382;59.942;30.472;2022-12-07T03:03:06;10.88;;;6.32;;
29402;SDS011;16382;59.942;30.472;2022-12-07T03:05:42;16.88;;;9.90;;
29402;SDS011;16382;59.942;30.472;2022-12-07T03:08:24;12.38;;;7.40;;
29402;SDS011;16382;59.942;30.472;2022-12-07T03:11:00;12.25;;;6.93;;
29402;SDS011;16382;59.942;30.472;2022-12-07T03:13:33;15.50;;;8.13;;
29402;SDS011;16382;59.942;30.472;2022-12-07T03:16:09;11.77;;;6.88;;
29402;SDS011;16382;59.942;30.472;2022-12-07T03:18:43;13.02;;;7.07;;
29402;SDS011;16382;59.942;30.472;2022-12-07T03:21:16;13.55;;;7.57;;
29402;SDS011;16382;59.942;30.472;2022-12-07T03:23:49;14.10;;;7.75;;
29402;SDS011;16382;59.942;30.472;2022-12-07T03:26:21;15.70;;;7.80;;
29402;SDS011;16382;59.942;30.472;2022-12-07T03:28:52;14.50;;;7.25;;
29402;SDS011;16382;59.942;30.472;2022-12-07T03:31:28;12.10;;;7.57;;
29402;SDS011;16382;59.942;30.472;2022-12-07T03:33:59;12.43;;;7.18;;
29402;SDS011;16382;59.942;30.472;2022-12-07T03:36:37;12.32;;;7.63;;
29402;SDS011;16382;59.942;30.472;2022-12-07T03:39:12;15.30;;;7.20;;
29402;SDS011;16382;59.942;30.472;2022-12-07T03:41:49;16.40;;;8.18;;
29402;SDS011;16382;59.942;30.472;2022-12-07T03:44:18;15.60;;;8.02;;
29402;SDS011;16382;59.942;30.472;2022-12-07T03:46:49;15.88;;;9.32;;
29402;SDS011;16382;59.942;30.472;2022-12-07T03:49:30;12.93;;;7.20;;
29402;SDS011;16382;59.942;30.472;2022-12-07T03:52:07;11.05;;;6.40;;
29402;SDS011;16382;59.942;30.472;2022-12-07T03:54:43;13.30;;;6.63;;
29402;SDS011;16382;59.942;30.472;2022-12-07T03:57:18;13.02;;;7.50;;
29402;SDS011;16382;59.942;30.472;2022-12-07T03:59:46;12.95;;;6.85;;
29402;SDS011;16382;59.942;30.472;2022-12-07T04:02:16;14.90;;;7.57;;
29402;SDS011;16382;59.942;30.472;2022-12-07T04:04:44;15.35;;;8.65;;
29402;SDS011;16382;59.942;30.472;2022-12-07T04:07:11;15.10;;;7.80;;
29402;SDS011;16382;59.942;30.472;2022-12-07T04:09:39;12.90;;;7.55;;
29402;SDS011;16382;59.942;30.472;2022-12-07T04:12:06;11.10;;;6.63;;
29402;SDS011;16382;59.942;30.472;2022-12-07T04:14:34;10.27;;;6.68;;
29402;SDS011;16382;59.942;30.472;2022-12-07T04:17:02;13.07;;;8.20;;
29402;SDS011;16382;59.942;30.472;2022-12-07T04:19:32;9.50;;;6.55;;
29402;SDS011;16382;59.942;30.472;2022-12-07T04:22:01;13.75;;;8.00;;
29402;SDS011;16382;59.942;30.472;2022-12-07T04:24:32;14.18;;;7.45;;
29402;SDS011;16382;59.942;30.472;2022-12-07T04:27:00;12.23;;;6.35;;
29402;SDS011;16382;59.942;30.472;2022-12-07T04:29:29;13.05;;;7.70;;
29402;SDS011;16382;59.942;30.472;2022-12-07T04:31:56;16.45;;;8.93;;
29402;SDS011;16382;59.942;30.472;2022-12-07T04:34:23;13.38;;;6.55;;
29402;SDS011;16382;59.942;30.472;2022-12-07T04:36:52;15.98;;;7.03;;
29402;SDS011;16382;59.942;30.472;2022-12-07T04:39:22;13.45;;;7.68;;
29402;SDS011;16382;59.942;30.472;2022-12-07T04:41:53;17.95;;;8.65;;
29402;SDS011;16382;59.942;30.472;2022-12-07T04:44:21;12.95;;;7.28;;
29402;SDS011;16382;59.942;30.472;2022-12-07T04:46:51;15.45;;;7.95;;
29402;SDS011;16382;59.942;30.472;2022-12-07T04:49:19;14.13;;;8.30;;
29402;SDS011;16382;59.942;30.472;2022-12-07T04:51:47;14.38;;;8.52;;
29402;SDS011;16382;59.942;30.472;2022-12-07T04:54:17;12.48;;;8.18;;
29402;SDS011;16382;59.942;30.472;2022-12-07T04:56:45;16.33;;;8.18;;
29402;SDS011;16382;59.942;30.472;2022-12-07T04:59:13;13.77;;;7.72;;
29402;SDS011;16382;59.942;30.472;2022-12-07T05:01:43;13.70;;;7.57;;
29402;SDS011;16382;59.942;30.472;2022-12-07T05:04:11;13.85;;;7.10;;
29402;SDS011;16382;59.942;30.472;2022-12-07T05:06:39;15.38;;;8.90;;
29402;SDS011;16382;59.942;30.472;2022-12-07T05:09:06;13.80;;;7.38;;
29402;SDS011;16382;59.942;30.472;2022-12-07T05:11:36;12.85;;;7.70;;
29402;SDS011;16382;59.942;30.472;2022-12-07T05:14:07;19.00;;;8.35;;
29402;SDS011;16382;59.942;30.472;2022-12-07T05:16:39;19.55;;;10.27;;
29402;SDS011;16382;59.942;30.472;2022-12-07T05:19:08;17.00;;;8.65;;
29402;SDS011;16382;59.942;30.472;2022-12-07T05:21:36;15.25;;;8.73;;
29402;SDS011;16382;59.942;30.472;2022-12-07T05:24:04;18.70;;;9.07;;
29402;SDS011;16382;59.942;30.472;2022-12-07T05:26:33;15.50;;;8.68;;
29402;SDS011;16382;59.942;30.472;2022-12-07T05:29:02;15.23;;;7.53;;
29402;SDS011;16382;59.942;30.472;2022-12-07T05:31:30;12.65;;;7.35;;
29402;SDS011;16382;59.942;30.472;2022-12-07T05:33:59;12.65;;;7.72;;
29402;SDS011;16382;59.942;30.472;2022-12-07T05:36:26;17.05;;;8.05;;
29402;SDS011;16382;59.942;30.472;2022-12-07T05:38:56;18.83;;;8.10;;
29402;SDS011;16382;59.942;30.472;2022-12-07T05:41:23;14.35;;;8.13;;
29402;SDS011;16382;59.942;30.472;2022-12-07T05:44:10;16.58;;;7.95;;
29402;SDS011;16382;59.942;30.472;2022-12-07T05:46:41;13.48;;;7.70;;
29402;SDS011;16382;59.942;30.472;2022-12-07T05:49:09;15.85;;;8.02;;
29402;SDS011;16382;59.942;30.472;2022-12-07T05:51:40;19.38;;;7.90;;
29402;SDS011;16382;59.942;30.472;2022-12-07T05:54:08;13.35;;;6.97;;
29402;SDS011;16382;59.942;30.472;2022-12-07T05:56:36;13.30;;;6.90;;
29402;SDS011;16382;59.942;30.472;2022-12-07T05:59:03;18.10;;;7.88;;
29402;SDS011;16382;59.942;30.472;2022-12-07T06:01:51;19.95;;;9.00;;
29402;SDS011;16382;59.942;30.472;2022-12-07T06:04:19;14.52;;;7.97;;
29402;SDS011;16382;59.942;30.472;2022-12-07T06:06:47;15.25;;;8.23;;
29402;SDS011;16382;59.942;30.472;2022-12-07T06:09:16;14.10;;;8.52;;
29402;SDS011;16382;59.942;30.472;2022-12-07T06:11:44;14.77;;;6.43;;
29402;SDS011;16382;59.942;30.472;2022-12-07T06:14:29;19.63;;;8.45;;
29402;SDS011;16382;59.942;30.472;2022-12-07T06:17:09;15.48;;;8.68;;
29402;SDS011;16382;59.942;30.472;2022-12-07T06:19:37;12.45;;;7.38;;
29402;SDS011;16382;59.942;30.472;2022-12-07T06:22:07;15.50;;;7.93;;
29402;SDS011;16382;59.942;30.472;2022-12-07T06:24:37;14.98;;;8.27;;
29402;SDS011;16382;59.942;30.472;2022-12-07T06:27:05;14.90;;;8.73;;
29402;SDS011;16382;59.942;30.472;2022-12-07T06:29:33;17.90;;;6.80;;
29402;SDS011;16382;59.942;30.472;2022-12-07T06:32:02;15.13;;;7.95;;
29402;SDS011;16382;59.942;30.472;2022-12-07T06:34:30;12.15;;;7.55;;
29402;SDS011;16382;59.942;30.472;2022-12-07T06:36:57;13.80;;;6.93;;
29402;SDS011;16382;59.942;30.472;2022-12-07T06:39:26;13.15;;;7.90;;
29402;SDS011;16382;59.942;30.472;2022-12-07T06:41:54;14.07;;;7.65;;
29402;SDS011;16382;59.942;30.472;2022-12-07T06:44:23;12.35;;;7.50;;
29402;SDS011;16382;59.942;30.472;2022-12-07T06:46:50;14.05;;;6.22;;
29402;SDS011;16382;59.942;30.472;2022-12-07T06:49:20;12.50;;;6.53;;
29402;SDS011;16382;59.942;30.472;2022-12-07T06:51:47;13.18;;;6.63;;
29402;SDS011;16382;59.942;30.472;2022-12-07T06:54:15;10.63;;;6.88;;
29402;SDS011;16382;59.942;30.472;2022-12-07T06:56:43;12.85;;;6.80;;
29402;SDS011;16382;59.942;30.472;2022-12-07T06:59:11;9.48;;;6.47;;
29402;SDS011;16382;59.942;30.472;2022-12-07T07:01:39;9.80;;;5.93;;
29402;SDS011;16382;59.942;30.472;2022-12-07T07:04:06;11.00;;;6.18;;
29402;SDS011;16382;59.942;30.472;2022-12-07T07:06:35;13.30;;;6.57;;
29402;SDS011;16382;59.942;30.472;2022-12-07T07:09:02;10.63;;;6.15;;
29402;SDS011;16382;59.942;30.472;2022-12-07T07:11:30;11.52;;;5.97;;
29402;SDS011;16382;59.942;30.472;2022-12-07T07:13:57;9.52;;;5.72;;
29402;SDS011;16382;59.942;30.472;2022-12-07T07:16:28;10.23;;;5.72;;
29402;SDS011;16382;59.942;30.472;2022-12-07T07:18:56;11.98;;;4.70;;
29402;SDS011;16382;59.942;30.472;2022-12-07T07:21:23;12.23;;;5.72;;
29402;SDS011;16382;59.942;30.472;2022-12-07T07:23:52;10.32;;;5.35;;
29402;SDS011;16382;59.942;30.472;2022-12-07T07:26:20;11.52;;;5.63;;
29402;SDS011;16382;59.942;30.472;2022-12-07T07:28:47;7.35;;;4.97;;
29402;SDS011;16382;59.942;30.472;2022-12-07T07:31:15;9.98;;;5.72;;
29402;SDS011;16382;59.942;30.472;2022-12-07T07:33:42;10.45;;;5.80;;
29402;SDS011;16382;59.942;30.472;2022-12-07T07:36:09;9.13;;;6.15;;
29402;SDS011;16382;59.942;30.472;2022-12-07T07:38:37;9.77;;;5.43;;
29402;SDS011;16382;59.942;30.472;2022-12-07T07:41:05;7.47;;;5.10;;
29402;SDS011;16382;59.942;30.472;2022-12-07T07:43:33;11.52;;;5.70;;
29402;SDS011;16382;59.942;30.472;2022-12-07T07:46:00;8.63;;;4.95;;
29402;SDS011;16382;59.942;30.472;2022-12-07T07:48:28;7.68;;;5.40;;
29402;SDS011;16382;59.942;30.472;2022-12-07T07:50:55;8.85;;;5.38;;
29402;SDS011;16382;59.942;30.472;2022-12-07T07:53:23;7.18;;;5.50;;
29402;SDS011;16382;59.942;30.472;2022-12-07T07:55:51;8.52;;;4.78;;
29402;SDS011;16382;59.942;30.472;2022-12-07T07:58:21;9.85;;;6.30;;
29402;SDS011;16382;59.942;30.472;2022-12-07T08:00:49;10.02;;;5.40;;
29402;SDS011;16382;59.942;30.472;2022-12-07T08:03:17;9.00;;;6.07;;
29402;SDS011;16382;59.942;30.472;2022-12-07T08:05:44;8.68;;;5.97;;
29402;SDS011;16382;59.942;30.472;2022-12-07T08:08:12;7.93;;;4.72;;
29402;SDS011;16382;59.942;30.472;2022-12-07T08:10:39;10.55;;;5.43;;
29402;SDS011;16382;59.942;30.472;2022-12-07T08:13:07;9.65;;;4.85;;
29402;SDS011;16382;59.942;30.472;2022-12-07T08:15:41;8.85;;;5.50;;
29402;SDS011;16382;59.942;30.472;2022-12-07T08:18:12;11.32;;;5.25;;
29402;SDS011;16382;59.942;30.472;2022-12-07T08:20:41;7.20;;;4.80;;
29402;SDS011;16382;59.942;30.472;2022-12-07T08:23:09;11.38;;;4.80;;
29402;SDS011;16382;59.942;30.472;2022-12-07T08:25:38;18.73;;;5.10;;
29402;SDS011;16382;59.942;30.472;2022-12-07T08:28:06;9.70;;;5.15;;
29402;SDS011;16382;59.942;30.472;2022-12-07T08:30:33;7.70;;;4.35;;
29402;SDS011;16382;59.942;30.472;2022-12-07T08:33:02;11.50;;;5.82;;
29402;SDS011;16382;59.942;30.472;2022-12-07T08:35:32;11.32;;;5.90;;
29402;SDS011;16382;59.942;30.472;2022-12-07T08:38:00;8.65;;;5.18;;
29402;SDS011;16382;59.942;30.472;2022-12-07T08:40:28;10.27;;;5.95;;
29402;SDS011;16382;59.942;30.472;2022-12-07T08:42:57;10.30;;;6.45;;
29402;SDS011;16382;59.942;30.472;2022-12-07T08:45:25;9.02;;;4.65;;
29402;SDS011;16382;59.942;30.472;2022-12-07T08:47:54;11.38;;;5.80;;
29402;SDS011;16382;59.942;30.472;2022-12-07T08:50:27;10.27;;;5.85;;
29402;SDS011;16382;59.942;30.472;2022-12-07T08:52:56;11.15;;;5.80;;
29402;SDS011;16382;59.942;30.472;2022-12-07T08:55:25;12.35;;;6.35;;
29402;SDS011;16382;59.942;30.472;2022-12-07T08:57:54;9.52;;;5.50;;
29402;SDS011;16382;59.942;30.472;2022-12-07T09:00:23;8.77;;;5.40;;
29402;SDS011;16382;59.942;30.472;2022-12-07T09:02:51;9.93;;;5.88;;
29402;SDS011;16382;59.942;30.472;2022-12-07T09:05:20;10.07;;;5.43;;
29402;SDS011;16382;59.942;30.472;2022-12-07T09:07:50;12.27;;;5.30;;
29402;SDS011;16382;59.942;30.472;2022-12-07T09:10:22;8.65;;;5.63;;
29402;SDS011;16382;59.942;30.472;2022-12-07T09:12:49;12.30;;;5.78;;
29402;SDS011;16382;59.942;30.472;2022-12-07T09:15:17;9.75;;;6.15;;
29402;SDS011;16382;59.942;30.472;2022-12-07T09:17:44;8.13;;;5.88;;
29402;SDS011;16382;59.942;30.472;2022-12-07T09:20:12;11.30;;;5.72;;
29402;SDS011;16382;59.942;30.472;2022-12-07T09:22:40;11.57;;;5.22;;
29402;SDS011;16382;59.942;30.472;2022-12-07T09:25:09;9.77;;;5.50;;
29402;SDS011;16382;59.942;30.472;2022-12-07T09:27:36;8.40;;;5.70;;
29402;SDS011;16382;59.942;30.472;2022-12-07T09:30:05;8.98;;;4.57;;
29402;SDS011;16382;59.942;30.472;2022-12-07T09:32:33;9.82;;;5.28;;
29402;SDS011;16382;59.942;30.472;2022-12-07T09:35:02;11.70;;;5.22;;
29402;SDS011;16382;59.942;30.472;2022-12-07T09:37:30;14.65;;;6.80;;
29402;SDS011;16382;59.942;30.472;2022-12-07T09:40:00;10.15;;;5.57;;
29402;SDS011;16382;59.942;30.472;2022-12-07T09:42:32;8.48;;;5.13;;
29402;SDS011;16382;59.942;30.472;2022-12-07T09:45:06;9.68;;;5.40;;
29402;SDS011;16382;59.942;30.472;2022-12-07T09:47:39;12.43;;;6.28;;
29402;SDS011;16382;59.942;30.472;2022-12-07T09:50:10;13.27;;;6.05;;
29402;SDS011;16382;59.942;30.472;2022-12-07T09:52:42;13.68;;;6.43;;
29402;SDS011;16382;59.942;30.472;2022-12-07T09:55:13;13.07;;;6.72;;
29402;SDS011;16382;59.942;30.472;2022-12-07T09:57:45;11.27;;;5.97;;
29402;SDS011;16382;59.942;30.472;2022-12-07T10:00:15;10.93;;;6.80;;
29402;SDS011;16382;59.942;30.472;2022-12-07T10:02:47;9.43;;;6.28;;
29402;SDS011;16382;59.942;30.472;2022-12-07T10:05:22;9.85;;;6.97;;
29402;SDS011;16382;59.942;30.472;2022-12-07T10:10:22;9.95;;;5.22;;
29402;SDS011;16382;59.942;30.472;2022-12-07T10:12:55;11.50;;;5.97;;
29402;SDS011;16382;59.942;30.472;2022-12-07T10:15:42;10.70;;;6.13;;
29402;SDS011;16382;59.942;30.472;2022-12-07T10:18:17;10.45;;;6.25;;
29402;SDS011;16382;59.942;30.472;2022-12-07T10:21:00;10.00;;;6.10;;
29402;SDS011;16382;59.942;30.472;2022-12-07T10:23:39;11.82;;;6.40;;
29402;SDS011;16382;59.942;30.472;2022-12-07T10:26:30;12.85;;;7.13;;
29402;SDS011;16382;59.942;30.472;2022-12-07T10:29:04;12.05;;;6.35;;
29402;SDS011;16382;59.942;30.472;2022-12-07T10:31:43;7.68;;;5.47;;
29402;SDS011;16382;59.942;30.472;2022-12-07T10:34:15;11.77;;;5.97;;
29402;SDS011;16382;59.942;30.472;2022-12-07T10:36:51;7.57;;;5.03;;
29402;SDS011;16382;59.942;30.472;2022-12-07T10:39:20;11.80;;;4.93;;
29402;SDS011;16382;59.942;30.472;2022-12-07T10:41:54;12.63;;;7.82;;
29402;SDS011;16382;59.942;30.472;2022-12-07T10:44:26;16.50;;;6.65;;
29402;SDS011;16382;59.942;30.472;2022-12-07T10:47:01;13.40;;;7.45;;
29402;SDS011;16382;59.942;30.472;2022-12-07T10:49:54;8.93;;;4.88;;
29402;SDS011;16382;59.942;30.472;2022-12-07T10:53:16;12.35;;;5.38;;
29402;SDS011;16382;59.942;30.472;2022-12-07T10:56:16;12.25;;;5.68;;
29402;SDS011;16382;59.942;30.472;2022-12-07T10:59:16;9.88;;;5.38;;
29402;SDS011;16382;59.942;30.472;2022-12-07T11:02:17;10.18;;;4.50;;
29402;SDS011;16382;59.942;30.472;2022-12-07T11:05:09;11.90;;;5.45;;
29402;SDS011;16382;59.942;30.472;2022-12-07T11:07:48;10.48;;;4.72;;
29402;SDS011;16382;59.942;30.472;2022-12-07T11:10:29;8.68;;;4.28;;
29402;SDS011;16382;59.942;30.472;2022-12-07T11:13:23;9.23;;;4.15;;
29402;SDS011;16382;59.942;30.472;2022-12-07T11:16:10;10.75;;;5.10;;
29402;SDS011;16382;59.942;30.472;2022-12-07T11:18:54;10.40;;;4.93;;
29402;SDS011;16382;59.942;30.472;2022-12-07T11:21:57;10.02;;;4.95;;
29402;SDS011;16382;59.942;30.472;2022-12-07T11:24:31;7.00;;;3.90;;
29402;SDS011;16382;59.942;30.472;2022-12-07T11:27:09;7.97;;;4.43;;
29402;SDS011;16382;59.942;30.472;2022-12-07T11:30:01;8.20;;;4.57;;
29402;SDS011;16382;59.942;30.472;2022-12-07T11:35:45;11.65;;;4.60;;
29402;SDS011;16382;59.942;30.472;2022-12-07T11:38:24;9.52;;;4.18;;
29402;SDS011;16382;59.942;30.472;2022-12-07T11:41:01;9.32;;;5.07;;
29402;SDS011;16382;59.942;30.472;2022-12-07T11:43:42;9.40;;;4.32;;
29402;SDS011;16382;59.942;30.472;2022-12-07T11:46:21;9.52;;;5.03;;
29402;SDS011;16382;59.942;30.472;2022-12-07T11:48:57;11.57;;;4.82;;
29402;SDS011;16382;59.942;30.472;2022-12-07T11:51:32;6.25;;;4.38;;
29402;SDS011;16382;59.942;30.472;2022-12-07T11:54:05;11.55;;;4.60;;
29402;SDS011;16382;59.942;30.472;2022-12-07T11:56:41;13.20;;;6.07;;
29402;SDS011;16382;59.942;30.472;2022-12-07T11:59:11;10.93;;;4.60;;
29402;SDS011;16382;59.942;30.472;2022-12-07T12:01:48;10.35;;;5.28;;
29402;SDS011;16382;59.942;30.472;2022-12-07T12:04:27;10.57;;;5.55;;
29402;SDS011;16382;59.942;30.472;2022-12-07T12:07:05;10.32;;;5.72;;
29402;SDS011;16382;59.942;30.472;2022-12-07T12:09:34;7.63;;;4.88;;
29402;SDS011;16382;59.942;30.472;2022-12-07T12:12:18;10.65;;;5.70;;
29402;SDS011;16382;59.942;30.472;2022-12-07T12:15:16;7.63;;;4.63;;
29402;SDS011;16382;59.942;30.472;2022-12-07T12:17:57;12.00;;;4.95;;
29402;SDS011;16382;59.942;30.472;2022-12-07T12:20:53;7.95;;;4.25;;
29402;SDS011;16382;59.942;30.472;2022-12-07T12:23:29;7.25;;;4.63;;
29402;SDS011;16382;59.942;30.472;2022-12-07T12:26:06;13.15;;;4.43;;
29402;SDS011;16382;59.942;30.472;2022-12-07T12:28:49;7.30;;;4.05;;
29402;SDS011;16382;59.942;30.472;2022-12-07T12:31:36;8.30;;;4.82;;
29402;SDS011;16382;59.942;30.472;2022-12-07T12:37:43;8.30;;;5.50;;
29402;SDS011;16382;59.942;30.472;2022-12-07T12:55:44;10.65;;;5.90;;
29402;SDS011;16382;59.942;30.472;2022-12-07T12:58:47;10.68;;;4.72;;
29402;SDS011;16382;59.942;30.472;2022-12-07T13:10:33;14.68;;;6.07;;
29402;SDS011;16382;59.942;30.472;2022-12-07T13:22:43;10.30;;;5.28;;
29402;SDS011;16382;59.942;30.472;2022-12-07T13:25:22;14.95;;;5.80;;
29402;SDS011;16382;59.942;30.472;2022-12-07T13:28:07;15.02;;;5.85;;
29402;SDS011;16382;59.942;30.472;2022-12-07T13:30:52;11.50;;;6.05;;
29402;SDS011;16382;59.942;30.472;2022-12-07T13:33:29;11.85;;;6.85;;
29402;SDS011;16382;59.942;30.472;2022-12-07T13:35:57;10.88;;;6.28;;
29402;SDS011;16382;59.942;30.472;2022-12-07T13:38:27;11.55;;;6.20;;
29402;SDS011;16382;59.942;30.472;2022-12-07T13:41:02;15.30;;;7.57;;
29402;SDS011;16382;59.942;30.472;2022-12-07T13:43:42;16.85;;;8.93;;
29402;SDS011;16382;59.942;30.472;2022-12-07T13:46:11;13.57;;;8.07;;
29402;SDS011;16382;59.942;30.472;2022-12-07T13:48:43;17.30;;;8.68;;
29402;SDS011;16382;59.942;30.472;2022-12-07T13:51:18;17.88;;;8.43;;
29402;SDS011;16382;59.942;30.472;2022-12-07T13:53:49;16.95;;;8.88;;
29402;SDS011;16382;59.942;30.472;2022-12-07T13:56:22;14.48;;;8.00;;
29402;SDS011;16382;59.942;30.472;2022-12-07T13:58:56;21.77;;;8.90;;
29402;SDS011;16382;59.942;30.472;2022-12-07T14:01:24;16.13;;;8.50;;
29402;SDS011;16382;59.942;30.472;2022-12-07T14:03:52;22.60;;;8.35;;
29402;SDS011;16382;59.942;30.472;2022-12-07T14:06:23;19.20;;;9.77;;
29402;SDS011;16382;59.942;30.472;2022-12-07T14:09:06;15.88;;;8.13;;
29402;SDS011;16382;59.942;30.472;2022-12-07T14:11:37;20.23;;;9.87;;
29402;SDS011;16382;59.942;30.472;2022-12-07T14:14:05;14.75;;;8.57;;
29402;SDS011;16382;59.942;30.472;2022-12-07T14:16:37;14.13;;;7.60;;
29402;SDS011;16382;59.942;30.472;2022-12-07T14:19:05;16.42;;;8.38;;
29402;SDS011;16382;59.942;30.472;2022-12-07T14:22:17;14.85;;;8.50;;
29402;SDS011;16382;59.942;30.472;2022-12-07T14:24:58;13.60;;;7.75;;
29402;SDS011;16382;59.942;30.472;2022-12-07T14:27:51;16.38;;;8.35;;
29402;SDS011;16382;59.942;30.472;2022-12-07T14:30:24;17.40;;;7.80;;
29402;SDS011;16382;59.942;30.472;2022-12-07T14:32:54;14.63;;;8.30;;
29402;SDS011;16382;59.942;30.472;2022-12-07T14:35:26;17.23;;;8.50;;
29402;SDS011;16382;59.942;30.472;2022-12-07T14:38:00;16.17;;;8.18;;
29402;SDS011;16382;59.942;30.472;2022-12-07T14:40:28;16.63;;;9.07;;
29402;SDS011;16382;59.942;30.472;2022-12-07T14:43:00;17.75;;;9.57;;
29402;SDS011;16382;59.942;30.472;2022-12-07T14:45:29;21.95;;;8.95;;
29402;SDS011;16382;59.942;30.472;2022-12-07T14:47:57;14.52;;;8.57;;
29402;SDS011;16382;59.942;30.472;2022-12-07T14:50:25;16.33;;;7.85;;
29402;SDS011;16382;59.942;30.472;2022-12-07T14:52:54;18.10;;;8.32;;
29402;SDS011;16382;59.942;30.472;2022-12-07T14:55:27;15.65;;;8.68;;
29402;SDS011;16382;59.942;30.472;2022-12-07T14:57:58;20.77;;;9.57;;
29402;SDS011;16382;59.942;30.472;2022-12-07T15:00:27;16.98;;;9.02;;
29402;SDS011;16382;59.942;30.472;2022-12-07T15:02:55;19.73;;;9.60;;
29402;SDS011;16382;59.942;30.472;2022-12-07T15:05:24;20.33;;;10.20;;
29402;SDS011;16382;59.942;30.472;2022-12-07T15:07:52;13.93;;;8.20;;
29402;SDS011;16382;59.942;30.472;2022-12-07T15:10:20;20.83;;;9.35;;
29402;SDS011;16382;59.942;30.472;2022-12-07T15:12:54;17.27;;;9.93;;
29402;SDS011;16382;59.942;30.472;2022-12-07T15:15:44;15.25;;;7.85;;
29402;SDS011;16382;59.942;30.472;2022-12-07T15:18:12;15.00;;;8.50;;
29402;SDS011;16382;59.942;30.472;2022-12-07T15:20:40;14.50;;;8.52;;
29402;SDS011;16382;59.942;30.472;2022-12-07T15:23:07;13.40;;;8.27;;
29402;SDS011;16382;59.942;30.472;2022-12-07T15:25:36;12.90;;;7.78;;
29402;SDS011;16382;59.942;30.472;2022-12-07T15:28:07;14.52;;;7.63;;
29402;SDS011;16382;59.942;30.472;2022-12-07T15:30:36;17.52;;;7.18;;
29402;SDS011;16382;59.942;30.472;2022-12-07T15:33:09;12.90;;;7.78;;
29402;SDS011;16382;59.942;30.472;2022-12-07T15:35:38;16.92;;;8.90;;
29402;SDS011;16382;59.942;30.472;2022-12-07T15:38:06;19.73;;;8.73;;
29402;SDS011;16382;59.942;30.472;2022-12-07T15:40:33;17.10;;;8.70;;
29402;SDS011;16382;59.942;30.472;2022-12-07T15:43:01;14.82;;;8.85;;